F/V Attalaya Berria — FHCB — position and weather

sailwx.info

Track history (hours):
 
Tides and Currents Weather Stations Pressure Air Temp Water Temp Dewpoint Dewpoint Depression Visibility Wind Speed Wind Dir Waves Ship Positions

F/V Attalaya Berria

Last reported at 2017-Nov-22 22:00 UTC. Time now 2017-Nov-22 22:20 UTC.
Position N 43°28' W 001°40'.

Length 26 m.

Type: Fishing. MMSI: 228315000.

Date/timePositionNaut miles runAvg speedWind from/ knotsBaromVisibWave heightAir tempDewpointWater temp
2017-Nov-22 22:00N 43°28' W 001°40'1 1.2
2017-Nov-22 21:30N 43°28' W 001°39'5 9.3
2017-Nov-22 21:00N 43°25' W 001°44'1 1.6
2017-Nov-22 20:30N 43°26' W 001°44'0 1.0
2017-Nov-22 20:00N 43°25' W 001°44'0 0.4
2017-Nov-22 19:30N 43°25' W 001°44'  
2017-Nov-14 13:39N 43°22' W 001°47'0 1.5
2017-Nov-14 13:29N 43°22' W 001°47'2 5.1
2017-Nov-14 13:00N 43°24' W 001°49'4 8.0
2017-Nov-14 12:30N 43°22' W 001°54'  
Track history (hours):
 
Tides and Currents Weather Stations Pressure Air Temp Water Temp Dewpoint Dewpoint Depression Visibility Wind Speed Wind Dir Waves Ship Positions

F/V Attalaya Berria

Last reported at 2017-Nov-22 22:00 UTC. Time now 2017-Nov-22 22:20 UTC.
Position N 43°28' W 001°40'.

Length 26 m.

Type: Fishing. MMSI: 228315000.

Date/timePositionNaut miles runAvg speedWind from/ knotsBaromVisibWave heightAir tempDewpointWater temp
2017-Nov-22 22:00N 43°28' W 001°40'1 1.2
2017-Nov-22 21:30N 43°28' W 001°39'5 9.3
2017-Nov-22 21:00N 43°25' W 001°44'1 1.6
2017-Nov-22 20:30N 43°26' W 001°44'0 1.0
2017-Nov-22 20:00N 43°25' W 001°44'0 0.4
2017-Nov-22 19:30N 43°25' W 001°44'  
2017-Nov-14 13:39N 43°22' W 001°47'0 1.5
2017-Nov-14 13:29N 43°22' W 001°47'2 5.1
2017-Nov-14 13:00N 43°24' W 001°49'4 8.0
2017-Nov-14 12:30N 43°22' W 001°54'  

Dump ship's entire track history